Airfield :
LOGIN :

Register | Disclaimer

   EN    FR    IT 

 










Legend :    VFR   Marginal VFR   IFR   Intensive IFR   Very Intensive IFR
Visi :
Ceiling :
>= 8 km
>= 3000ft
5 to 8 km
1000 to 3000 ft
1500m to 5 km
500 to 1000 ft
800 to 1500m
200 to 500 ft
< 800m
< 200 ft
Symbols :   Thunderstorms  Fog  Heavy snow  Heavy precipitations  Wind > 20 kt
SIGMETs :     Misc.  Thunderstorms  Icing  Turbulence  Mountain Waves  Volcanic Ashes







- Airport Elevation : 295 ft
- IATA code : BWE


EDVE - Braunschweig

CURRENT METAR :
  • 250950Z 26017KT 9999 SCT023 BKN028 15/09 Q1006

EXPIRED METARs :
  • 250920Z 25018KT 9999 FEW023 SCT029 BKN038 15/10 Q1006 RERA
  • 250850Z 26023KT 6000 RA SCT020 BKN027 OVC038 12/10 Q1006
  • 250820Z 25021KT 9999 BKN040 BKN054 16/09 Q1005
  • 250750Z 24012KT 9999 FEW038 SCT061 15/09 Q1004
  • 250720Z 23013KT 9999 -DZ FEW036 SCT043 BKN056 15/09 Q1005

TAF TAF EDVE
Valid from the 25 at 09:00 until the 25 at 18:00 UTC


250800Z 2509/2518 22015G25KT 9999 BKN035
TEMPO 2509/2515 28020G40KT
BECMG 2515/2517 30010KT
PROB30
TEMPO 2515/2518 SHRA BKN015CB
No reported NOTAMs for that airfield.



MET'MAP, your aeronautical weather chart ! - Copyright ORBIFLY December 2007 - Disclaimer

ORBIFLY MET'MAP TEAM :

Programming & Development : Alexandra Zaïnal
Concept & Development : Baudouin d'Aumeries
Co-Development & Prog : Marc-Olivier Méhu
Technical & hardware support : Manuel Goepfert

Contact : metmap@orbifly.com




SOURCES & CREDITS :

   NOAA